Time;durP1;ratioP1;P1;durP2;ratioP2;P2;SDS_P1;SDS_P2;PMS_P1;PMS_P2;Temp;Humidity;BMP_temperature;BMP_pressure;BME280_temperature;BME280_humidity;BME280_pressure;Samples;Min_cycle;Max_cycle;Signal;HPM_P1;HPM_P2
2022/07/10 00:01:58;313541.00;1.05;541.20;66096.00;0.22;115.01;;;;;23.80;1.00;;;;;;2276488;60;1481;-89
2022/07/10 00:04:25;322364.00;1.07;556.36;70296.00;0.23;122.27;;;;;23.80;1.00;;;;;;2310871;39;3823;-87
2022/07/10 00:06:52;402555.00;1.34;694.20;69576.00;0.23;121.03;;;;;24.00;1.00;;;;;;2293167;39;3619;-89
2022/07/10 00:09:19;265779.00;0.89;459.09;65082.00;0.22;113.26;;;;;23.90;1.00;;;;;;2276550;60;920;-88
2022/07/10 00:11:47;333223.00;1.11;575.03;94148.00;0.31;163.47;;;;;23.90;1.00;;;;;;2276560;60;1396;-89
2022/07/10 00:14:15;288702.00;0.96;498.50;68300.00;0.23;118.82;;;;;23.90;1.00;;;;;;2276469;60;1920;-90
2022/07/10 00:16:42;432865.00;1.44;746.31;64615.00;0.22;112.45;;;;;23.80;1.00;;;;;;2285009;40;3606;-88
2022/07/10 00:19:09;681997.00;2.27;1176.03;71895.00;0.24;125.03;;;;;23.80;1.00;;;;;;2278922;39;3628;-89
2022/07/10 00:21:37;441356.00;1.47;760.91;98898.00;0.33;171.67;;;;;23.80;1.00;;;;;;2276411;60;1583;-87
2022/07/10 00:24:04;347764.00;1.16;600.02;75121.00;0.25;130.61;;;;;23.70;1.00;;;;;;2276570;60;1042;-88
2022/07/10 00:31:32;649447.00;2.16;1119.68;57179.00;0.19;99.60;;;;;23.90;1.00;;;;;;2278109;55;3688;-87
2022/07/10 00:33:59;528672.00;1.76;911.20;65401.00;0.22;113.81;;;;;24.00;1.00;;;;;;2276323;60;1913;-89
2022/07/10 00:38:59;347293.00;1.16;599.21;65923.00;0.22;114.71;;;;;24.00;1.00;;;;;;2291598;40;3506;-90
2022/07/10 00:41:28;354380.00;1.18;611.39;67041.00;0.22;116.65;;;;;24.00;1.00;;;;;;2307919;55;3849;-88
2022/07/10 00:48:59;699940.00;2.33;1207.13;66604.00;0.22;115.89;;;;;23.70;1.00;;;;;;827034;56;3541;-87
2022/07/10 00:51:28;615584.00;2.05;1061.14;105417.00;0.35;182.92;;;;;23.70;1.00;;;;;;2276181;60;1367;-88
2022/07/10 00:59:01;569461.00;1.90;981.52;81276.00;0.27;141.24;;;;;23.80;1.00;;;;;;815817;60;1741;-87
2022/07/10 01:01:39;580966.00;1.94;1001.37;68441.00;0.23;119.07;;;;;23.90;1.00;;;;;;2268207;61;1499;-88
2022/07/10 01:06:43;320996.00;1.07;554.01;0.00;0.00;0.62;;;;;24.00;1.00;;;;;;1733868;40;3221;-88
2022/07/10 01:11:39;749449.00;2.50;1293.10;0.00;0.00;0.62;;;;;23.90;1.00;;;;;;1400265;56;3537;-87
2022/07/10 01:16:35;721254.00;2.40;1244.12;13381.00;0.04;23.81;;;;;23.80;1.00;;;;;;1998930;55;3642;-86
2022/07/10 01:19:02;347657.00;1.16;599.83;0.00;0.00;0.62;;;;;23.60;1.00;;;;;;2276298;60;1607;-89
2022/07/10 01:21:33;206822.00;0.69;357.67;0.00;0.00;0.62;;;;;23.80;1.00;;;;;;2276290;60;1593;-89
2022/07/10 01:29:09;197333.00;0.66;341.33;0.00;0.00;0.62;;;;;23.80;1.00;;;;;;2279704;56;1844;-88
2022/07/10 01:34:11;183721.00;0.61;317.90;0.00;0.00;0.62;;;;;23.50;1.00;;;;;;2274948;61;1950;-92
2022/07/10 01:36:40;225639.00;0.75;390.05;0.00;0.00;0.62;;;;;23.40;1.00;;;;;;2272873;61;1615;-89
2022/07/10 01:39:08;120664.00;0.40;209.23;0.00;0.00;0.62;;;;;23.30;1.00;;;;;;2272926;61;837;-91
2022/07/10 01:49:09;209313.00;0.70;361.95;0.00;0.00;0.62;;;;;23.40;1.00;;;;;;1838110;59;1910;-88
2022/07/10 01:54:10;324376.00;1.08;559.82;0.00;0.00;0.62;;;;;23.30;1.00;;;;;;2275139;61;1878;-89
2022/07/10 01:59:09;370562.00;1.24;639.20;0.00;0.00;0.62;;;;;23.10;1.00;;;;;;2275321;61;1324;-89
2022/07/10 02:06:34;517160.00;1.72;891.37;0.00;0.00;0.62;;;;;23.10;1.00;;;;;;2274800;61;1341;-88
2022/07/10 02:41:28;790691.00;2.64;1364.89;0.00;0.00;0.62;;;;;22.00;1.00;;;;;;2411848;55;3785;-89
2022/07/10 02:44:05;714486.00;2.38;1232.37;0.00;0.00;0.62;;;;;22.10;1.00;;;;;;2349092;39;3566;-88
2022/07/10 02:49:17;791816.00;2.64;1366.85;0.00;0.00;0.62;;;;;21.70;1.00;;;;;;2275420;61;1388;-89
2022/07/10 03:01:41;888377.00;2.96;1535.72;0.00;0.00;0.62;;;;;21.50;1.00;;;;;;2275514;61;1916;-90
2022/07/10 03:11:33;677130.00;2.26;1167.60;0.00;0.00;0.62;;;;;21.00;1.00;;;;;;2270878;61;1381;-89
2022/07/10 03:18:59;890813.00;2.97;1539.99;0.00;0.00;0.62;;;;;20.90;1.00;;;;;;1564479;40;3410;-89
2022/07/10 03:21:26;86087.00;0.29;149.55;0.00;0.00;0.62;;;;;21.00;1.00;;;;;;2323105;40;3598;-88
2022/07/10 04:12:26;1012230.00;3.37;1754.14;0.00;0.00;0.62;;;;;19.80;1.00;;;;;;2274630;61;990;-89
2022/07/10 04:14:53;615659.00;2.05;1061.27;140353.00;0.47;243.18;;;;;19.90;1.00;;;;;;2273127;61;2006;-89
2022/07/10 04:17:20;132668.00;0.44;229.93;0.00;0.00;0.62;;;;;19.90;1.00;;;;;;2273117;61;869;-89
2022/07/10 04:24:51;947475.00;3.16;1639.66;0.00;0.00;0.62;;;;;20.20;1.00;;;;;;2274901;61;969;-89
2022/07/10 05:12:44;471867.00;1.57;813.40;166857.00;0.56;288.85;;;;;22.40;1.00;;;;;;2121121;40;3201;-88
2022/07/10 05:30:18;1109042.00;3.70;1926.60;73028.00;0.24;126.99;;;;;21.50;1.00;;;;;;2274324;61;1249;-90
2022/07/10 05:35:15;1365672.00;4.55;2392.81;0.00;0.00;0.62;;;;;21.40;1.00;;;;;;2274418;61;1950;-90
2022/07/10 06:10:25;621796.00;2.07;1071.87;0.00;0.00;0.62;;;;;24.70;1.00;;;;;;2274803;61;1330;-89
2022/07/10 06:12:52;171931.00;0.57;297.59;0.00;0.00;0.62;;;;;24.50;1.00;;;;;;2277811;39;3592;-89
2022/07/10 06:15:19;217819.00;0.73;376.59;0.00;0.00;0.62;;;;;23.90;1.00;;;;;;2276832;61;2000;-90
2022/07/10 06:17:46;274474.00;0.91;474.04;0.00;0.00;0.62;;;;;22.90;1.00;;;;;;2276266;60;1086;-89
2022/07/10 06:32:49;61465.00;0.20;107.01;0.00;0.00;0.62;;;;;20.80;1.00;;;;;;649958;39;3201;-88
2022/07/10 06:35:16;376518.00;1.26;649.44;0.00;0.00;0.62;;;;;20.70;1.00;;;;;;2277215;61;1978;-88
2022/07/10 06:37:43;135425.00;0.45;234.68;0.00;0.00;0.62;;;;;21.10;1.00;;;;;;2277461;61;1098;-86
2022/07/10 06:40:14;249576.00;0.83;431.22;47812.00;0.16;83.40;;;;;23.00;1.00;;;;;;2277486;61;1584;-87
2022/07/10 06:42:42;225899.00;0.75;390.49;15162.00;0.05;26.89;;;;;25.30;1.00;;;;;;2276666;60;1049;-89
2022/07/10 06:45:10;85121.00;0.28;147.88;0.00;0.00;0.62;;;;;26.60;1.00;;;;;;2276821;60;1589;-89
2022/07/10 06:52:53;322383.00;1.07;556.39;0.00;0.00;0.62;;;;;27.30;1.00;;;;;;2274912;61;1320;-90
2022/07/10 06:55:20;139929.00;0.47;242.45;0.00;0.00;0.62;;;;;27.40;1.00;;;;;;2279556;40;3742;-88
2022/07/10 06:57:48;336782.00;1.12;581.14;45685.00;0.15;79.72;;;;;26.30;1.00;;;;;;2273456;61;1524;-88
2022/07/10 07:00:15;282714.00;0.94;488.20;0.00;0.00;0.62;;;;;25.10;1.00;;;;;;2350339;40;3733;-88
2022/07/10 07:02:42;185675.00;0.62;321.26;0.00;0.00;0.62;;;;;23.90;1.00;;;;;;2276865;60;1091;-87
2022/07/10 07:27:57;738315.00;2.46;1273.75;0.00;0.00;0.62;;;;;24.10;1.00;;;;;;2274810;61;1379;-88
2022/07/10 07:30:24;182225.00;0.61;315.32;148.00;0.00;0.88;;;;;24.90;1.00;;;;;;2272651;61;1632;-89
2022/07/10 07:32:51;227114.00;0.76;392.58;0.00;0.00;0.62;;;;;24.90;1.00;;;;;;2272571;61;1735;-88
2022/07/10 07:35:20;585229.00;1.95;1008.72;11265.00;0.04;20.14;;;;;24.20;1.00;;;;;;2291931;56;3716;-88
2022/07/10 07:37:48;302087.00;1.01;521.51;0.00;0.00;0.62;;;;;23.60;1.00;;;;;;2283919;56;4207;-88
2022/07/10 07:55:21;1162796.00;3.88;2023.10;0.00;0.00;0.62;;;;;23.00;1.00;;;;;;2309380;40;3568;-89
2022/07/10 08:00:23;728680.00;2.43;1257.01;0.00;0.00;0.62;;;;;23.70;1.00;;;;;;2292396;39;3661;-89
2022/07/10 08:05:24;531946.00;1.77;916.84;73518.00;0.25;127.84;;;;;23.70;1.00;;;;;;2275242;61;1349;-88
2022/07/10 08:07:53;141778.00;0.47;245.64;0.00;0.00;0.62;;;;;23.70;1.00;;;;;;2273269;61;1064;-89
2022/07/10 08:10:25;137544.00;0.46;238.34;0.00;0.00;0.62;;;;;23.80;1.00;;;;;;2273142;61;1578;-90
2022/07/10 08:12:52;59047.00;0.20;102.83;0.00;0.00;0.62;;;;;23.50;1.00;;;;;;2273098;61;1818;-90
2022/07/10 08:15:22;291913.00;0.97;504.02;0.00;0.00;0.62;;;;;23.80;1.00;;;;;;2273212;61;1915;-90
2022/07/10 08:17:50;233910.00;0.78;404.28;0.00;0.00;0.62;;;;;25.60;1.00;;;;;;2273151;61;1636;-88
2022/07/10 08:20:17;195574.00;0.65;338.30;0.00;0.00;0.62;;;;;26.90;1.00;;;;;;2273107;61;1647;-89
2022/07/10 08:22:45;90448.00;0.30;157.08;0.00;0.00;0.62;;;;;27.70;1.00;;;;;;2273127;61;1798;-88
2022/07/10 08:25:13;124747.00;0.42;216.27;0.00;0.00;0.62;;;;;28.10;1.00;;;;;;2274990;55;3703;-89
2022/07/10 08:30:13;895099.00;2.98;1547.51;0.00;0.00;0.62;;;;;30.30;1.00;;;;;;1939520;56;3568;-89
2022/07/10 08:32:42;463008.00;1.54;798.16;0.00;0.00;0.62;;;;;30.90;1.00;;;;;;2280747;56;3730;-87
2022/07/10 08:45:16;148593.00;0.50;257.38;0.00;0.00;0.62;;;;;28.70;1.00;;;;;;2270817;61;1423;-90
2022/07/10 08:55:27;217050.00;0.72;375.27;0.00;0.00;0.62;;;;;28.30;1.00;;;;;;1930730;60;1872;-89
2022/07/10 08:57:56;106077.00;0.35;184.06;0.00;0.00;0.62;;;;;27.80;1.00;;;;;;2268802;61;1569;-88
2022/07/10 09:00:25;154386.00;0.51;267.37;0.00;0.00;0.62;;;;;27.90;1.00;;;;;;2279036;39;3593;-86
2022/07/10 09:02:54;150494.00;0.50;260.66;0.00;0.00;0.62;;;;;28.20;1.00;;;;;;2277069;61;757;-90
2022/07/10 09:05:21;135049.00;0.45;234.04;0.00;0.00;0.62;;;;;28.70;1.00;;;;;;2312402;40;3643;-87
2022/07/10 09:25:43;1008036.00;3.36;1746.71;0.00;0.00;0.62;;;;;25.60;1.00;;;;;;801365;40;3448;-88
2022/07/10 09:33:24;987952.00;3.29;1711.15;148972.00;0.50;258.04;;;;;24.50;1.00;;;;;;2294068;55;4077;-90
2022/07/10 09:38:21;790841.00;2.64;1365.16;0.00;0.00;0.62;;;;;25.30;1.00;;;;;;1991537;55;3589;-88
2022/07/10 09:51:01;1001359.00;3.34;1734.88;0.00;0.00;0.62;;;;;26.20;1.00;;;;;;2325711;55;3630;-87
2022/07/10 09:53:29;249078.00;0.83;430.37;0.00;0.00;0.62;;;;;26.40;1.00;;;;;;2363478;40;3736;-87
2022/07/10 09:56:00;130823.00;0.44;226.75;0.00;0.00;0.62;;;;;27.10;1.00;;;;;;2276819;61;2006;-90
2022/07/10 09:58:37;314881.00;1.05;543.50;13648.00;0.05;24.27;;;;;27.60;1.00;;;;;;2276134;60;973;-90
2022/07/10 10:01:06;272281.00;0.91;470.27;0.00;0.00;0.62;;;;;28.20;1.00;;;;;;2334359;56;3711;-87
2022/07/10 10:06:13;114952.00;0.38;199.37;0.00;0.00;0.62;;;;;27.40;1.00;;;;;;2278564;55;3666;-90
2022/07/10 10:13:44;124342640.00;414.48;77885704.00;0.00;0.00;0.62;;;;;25.50;1.00;;;;;;1801187;56;3574;-89
2022/07/10 10:21:17;120293208.00;400.98;70514840.00;0.00;0.00;0.62;;;;;25.00;1.00;;;;;;2274989;61;1258;-88
2022/07/10 10:23:46;152810.00;0.51;264.65;0.00;0.00;0.62;;;;;25.10;1.00;;;;;;2273561;61;1048;-87
2022/07/10 10:26:14;233530.00;0.78;403.62;0.00;0.00;0.62;;;;;24.90;1.00;;;;;;2344158;40;3714;-88
2022/07/10 10:28:41;211809.00;0.71;366.25;0.00;0.00;0.62;;;;;24.20;1.00;;;;;;2324076;39;4154;-88
2022/07/10 10:31:13;87720.00;0.29;152.37;0.00;0.00;0.62;;;;;24.60;1.00;;;;;;2357464;55;3900;-89
2022/07/10 10:36:12;464022.00;1.55;799.90;0.00;0.00;0.62;;;;;25.20;1.00;;;;;;2270348;61;1970;-90
2022/07/10 10:43:40;1044353.00;3.48;1811.19;0.00;0.00;0.62;;;;;26.00;1.00;;;;;;2285860;40;3524;-88
2022/07/10 10:49:06;825274.00;2.75;1425.24;82625.00;0.28;143.57;;;;;24.90;1.00;;;;;;2183916;59;2136;-88
2022/07/10 10:54:07;519511.00;1.73;895.42;63322.00;0.21;110.22;;;;;24.50;1.00;;;;;;2286611;39;3497;-89
2022/07/10 10:59:04;198898.00;0.66;344.03;0.00;0.00;0.62;;;;;25.00;1.00;;;;;;2274117;61;1323;-87
2022/07/10 11:06:45;872660.00;2.91;1508.15;0.00;0.00;0.62;;;;;25.10;1.00;;;;;;2284904;56;3738;-90
2022/07/10 11:09:26;301714.00;1.01;520.87;0.00;0.00;0.62;;;;;24.20;1.00;;;;;;2277457;61;1634;-91
2022/07/10 11:19:28;450731.00;1.50;777.04;0.00;0.00;0.62;;;;;24.20;1.00;;;;;;2274326;61;1404;-89
2022/07/10 11:22:29;161284.00;0.54;279.25;0.00;0.00;0.62;;;;;25.00;1.00;;;;;;2272480;61;2151;-88
2022/07/10 11:25:05;84456.00;0.28;146.73;0.00;0.00;0.62;;;;;25.10;1.00;;;;;;2321119;39;3631;-88
2022/07/10 11:28:04;154892.00;0.52;268.24;0.00;0.00;0.62;;;;;24.80;1.00;;;;;;2284008;56;3779;-87
2022/07/10 11:30:45;40836.00;0.14;71.33;0.00;0.00;0.62;;;;;24.70;1.00;;;;;;2276650;60;1643;-87
2022/07/10 11:33:15;170821.00;0.57;295.68;0.00;0.00;0.62;;;;;25.10;1.00;;;;;;2276594;60;1506;-87
2022/07/10 11:35:47;40676.00;0.14;71.06;0.00;0.00;0.62;;;;;25.50;1.00;;;;;;2289366;39;3612;-88
2022/07/10 11:43:16;942331.00;3.14;1630.59;0.00;0.00;0.62;;;;;25.30;1.00;;;;;;2275114;61;1300;-91
2022/07/10 11:50:53;337490.00;1.12;582.36;74191.00;0.25;129.00;;;;;23.80;1.00;;;;;;1481344;55;3072;-88
2022/07/10 12:01:01;706578.00;2.36;1218.65;72044.00;0.24;125.29;;;;;24.80;1.00;;;;;;2275065;61;1322;-90
2022/07/10 12:06:06;408458.00;1.36;704.35;74545.00;0.25;129.61;;;;;24.50;1.00;;;;;;2274182;61;1411;-87
2022/07/10 12:08:44;380200.00;1.27;655.77;69818.00;0.23;121.45;;;;;24.20;1.00;;;;;;2334440;55;3737;-90
2022/07/10 12:11:16;561119.00;1.87;967.13;69076.00;0.23;120.16;;;;;24.30;1.00;;;;;;2283686;55;3795;-88
2022/07/10 12:16:12;762348.00;2.54;1315.54;0.00;0.00;0.62;;;;;23.90;1.00;;;;;;2309982;40;3471;-89
2022/07/10 12:21:10;807038.00;2.69;1393.40;65120.00;0.22;113.33;;;;;24.20;1.00;;;;;;2274832;61;1325;-89
2022/07/10 12:26:17;967674.00;3.23;1675.30;68127.00;0.23;118.52;;;;;24.60;1.00;;;;;;970876;55;3536;-89
2022/07/10 12:31:25;513114.00;1.71;884.40;0.00;0.00;0.62;;;;;25.60;1.00;;;;;;2301371;40;3509;-87
2022/07/10 12:33:54;74551.00;0.25;129.62;0.00;0.00;0.62;;;;;26.00;1.00;;;;;;2276425;60;986;-88
2022/07/10 12:36:23;87298.00;0.29;151.64;0.00;0.00;0.62;;;;;25.90;1.00;;;;;;2276518;60;1915;-88
2022/07/10 12:38:58;42108.00;0.14;73.54;0.00;0.00;0.62;;;;;25.30;1.00;;;;;;2276519;60;1579;-89
2022/07/10 12:41:25;80462.00;0.27;139.84;0.00;0.00;0.62;;;;;24.80;1.00;;;;;;2276569;60;1420;-89
2022/07/10 12:43:53;76291.00;0.25;132.63;0.00;0.00;0.62;;;;;25.00;1.00;;;;;;2276711;60;1111;-87
2022/07/10 12:46:21;263997.00;0.88;456.02;95037.00;0.32;165.00;;;;;24.80;1.00;;;;;;2276653;60;1003;-87
2022/07/10 12:49:05;251953.00;0.84;435.31;62354.00;0.21;108.55;;;;;25.00;1.00;;;;;;2276486;60;1043;-87
2022/07/10 12:51:35;228874.00;0.76;395.61;73257.00;0.24;127.39;;;;;25.20;1.00;;;;;;2276555;60;1388;-87
2022/07/10 12:54:02;252243.00;0.84;435.81;62479.00;0.21;108.76;;;;;24.70;1.00;;;;;;2276446;60;1019;-87
2022/07/10 12:56:34;261915.00;0.87;452.44;93493.00;0.31;162.34;;;;;24.60;1.00;;;;;;2276358;60;1998;-87
2022/07/10 12:59:03;0.00;0.00;0.62;0.00;0.00;0.62;;;;;24.30;1.00;;;;;;2276325;60;908;-87
2022/07/10 13:01:40;159618.00;0.53;276.38;0.00;0.00;0.62;;;;;24.10;1.00;;;;;;2276356;60;1387;-85
2022/07/10 13:04:08;132279.00;0.44;229.26;0.00;0.00;0.62;;;;;24.20;1.00;;;;;;2276362;60;1090;-87
2022/07/10 13:06:38;223953.00;0.75;387.15;70270.00;0.23;122.23;;;;;24.10;1.00;;;;;;2276327;60;2016;-86
2022/07/10 13:09:20;260965.00;0.87;450.81;69843.00;0.23;121.49;;;;;24.20;1.00;;;;;;2276012;60;1465;-86
2022/07/10 13:11:47;379501.00;1.27;654.57;73766.00;0.25;128.27;;;;;24.80;1.00;;;;;;2276448;60;1596;-85
2022/07/10 13:14:14;164660.00;0.55;285.07;63538.00;0.21;110.59;;;;;24.90;1.00;;;;;;2276352;60;1036;-87
2022/07/10 13:16:42;381295.00;1.27;657.65;81268.00;0.27;141.23;;;;;24.40;1.00;;;;;;2276315;60;1982;-86
2022/07/10 13:19:09;413316.00;1.38;712.70;74439.00;0.25;129.43;;;;;23.90;1.00;;;;;;2276303;60;1090;-85
2022/07/10 13:21:37;395664.00;1.32;682.35;68697.00;0.23;119.51;;;;;23.70;1.00;;;;;;2276338;60;1699;-86
2022/07/10 13:24:05;428222.00;1.43;738.33;70012.00;0.23;121.78;;;;;24.10;1.00;;;;;;2276464;60;1038;-85
2022/07/10 13:26:32;396828.00;1.32;684.35;70197.00;0.23;122.10;;;;;24.60;1.00;;;;;;2276374;60;1087;-86
2022/07/10 13:29:00;410093.00;1.37;707.16;117692.00;0.39;204.10;;;;;24.70;1.00;;;;;;2276297;60;1197;-86
2022/07/10 13:31:34;167124.00;0.56;289.31;71783.00;0.24;124.84;;;;;24.20;1.00;;;;;;2276200;60;1386;-86
2022/07/10 13:34:01;430141.00;1.43;741.63;71470.00;0.24;124.30;;;;;23.90;1.00;;;;;;2276284;60;2030;-86
2022/07/10 13:36:28;364027.00;1.21;627.97;75152.00;0.25;130.66;;;;;24.30;1.00;;;;;;2276234;60;1996;-84
2022/07/10 13:38:56;179545.00;0.60;310.71;68456.00;0.23;119.09;;;;;24.70;1.00;;;;;;2276334;60;1069;-84
2022/07/10 13:41:23;172911.00;0.58;299.28;66196.00;0.22;115.19;;;;;25.30;1.00;;;;;;2276177;60;1397;-86
2022/07/10 13:43:50;218486.00;0.73;377.74;64197.00;0.21;111.73;;;;;25.30;1.00;;;;;;2276143;60;1087;-82
2022/07/10 13:46:17;205451.00;0.68;355.31;70495.00;0.23;122.62;;;;;24.50;1.00;;;;;;2276091;60;1134;-84
2022/07/10 13:48:44;297604.00;0.99;513.80;58150.00;0.19;101.28;;;;;24.10;1.00;;;;;;2276091;60;1184;-84
2022/07/10 13:51:11;486833.00;1.62;839.16;71669.00;0.24;124.64;;;;;24.10;1.00;;;;;;2276041;60;1371;-84
2022/07/10 13:53:38;208631.00;0.70;360.78;70920.00;0.24;123.35;;;;;23.60;1.00;;;;;;2275966;60;983;-83
2022/07/10 13:56:08;204501.00;0.68;353.67;70692.00;0.24;122.96;;;;;23.40;1.00;;;;;;2276282;60;2005;-84
2022/07/10 13:58:36;656238.00;2.19;1131.43;195185.00;0.65;337.64;;;;;23.40;1.00;;;;;;2276225;60;1118;-85
2022/07/10 14:01:03;319693.00;1.07;551.77;78431.00;0.26;136.33;;;;;24.10;1.00;;;;;;2276173;60;1358;-85
2022/07/10 14:03:30;341906.00;1.14;589.95;72082.00;0.24;125.36;;;;;23.90;1.00;;;;;;2276222;60;1161;-85
2022/07/10 14:05:57;195178.00;0.65;337.62;56530.00;0.19;98.48;;;;;23.70;1.00;;;;;;2276122;60;2193;-87
2022/07/10 14:08:24;265070.00;0.88;457.87;64239.00;0.21;111.80;;;;;23.40;1.00;;;;;;2276355;60;1114;-87
2022/07/10 14:13:20;571070.00;1.90;984.29;120970.00;0.40;209.76;;;;;23.80;1.00;;;;;;2274148;61;1394;-87
2022/07/10 14:15:48;462162.00;1.54;796.70;103396.00;0.34;179.43;;;;;24.00;1.00;;;;;;2272140;61;1927;-87
2022/07/10 14:18:34;478106.00;1.59;824.14;70929.00;0.24;123.37;;;;;23.80;1.00;;;;;;2272235;61;1132;-88
2022/07/10 14:21:04;42369.00;0.14;73.99;0.00;0.00;0.62;;;;;23.40;1.00;;;;;;2272171;61;1471;-87
2022/07/10 14:23:31;204597.00;0.68;353.84;0.00;0.00;0.62;;;;;23.40;1.00;;;;;;2272265;61;1049;-88
2022/07/10 14:25:58;140986.00;0.47;244.27;0.00;0.00;0.62;;;;;24.00;1.00;;;;;;2272277;61;1130;-88
2022/07/10 14:28:27;135941.00;0.45;235.57;0.00;0.00;0.62;;;;;24.20;1.00;;;;;;2272164;61;1554;-89
2022/07/10 14:30:54;253245.00;0.84;437.53;0.00;0.00;0.62;;;;;24.20;1.00;;;;;;2272289;61;1292;-85
2022/07/10 14:33:21;170690.00;0.57;295.46;0.00;0.00;0.62;;;;;24.30;1.00;;;;;;2272211;61;1138;-86
2022/07/10 14:35:48;100367.00;0.33;174.21;0.00;0.00;0.62;;;;;24.10;1.00;;;;;;2272145;61;937;-86
2022/07/10 14:38:15;188002.00;0.63;325.27;0.00;0.00;0.62;;;;;24.00;1.00;;;;;;2272099;61;1923;-87
2022/07/10 14:40:42;245961.00;0.82;425.00;0.00;0.00;0.62;;;;;23.90;1.00;;;;;;2272119;61;1360;-87
2022/07/10 14:43:09;276118.00;0.92;476.86;0.00;0.00;0.62;;;;;24.10;1.00;;;;;;2272239;61;1022;-88
2022/07/10 14:45:38;175198.00;0.58;303.22;0.00;0.00;0.62;;;;;24.50;1.00;;;;;;2272201;61;1082;-87
2022/07/10 14:48:05;229239.00;0.76;396.24;0.00;0.00;0.62;;;;;24.70;1.00;;;;;;2272128;61;881;-87
2022/07/10 14:50:34;193745.00;0.65;335.16;0.00;0.00;0.62;;;;;24.70;1.00;;;;;;2272131;61;1378;-87
2022/07/10 14:53:01;216775.00;0.72;374.79;0.00;0.00;0.62;;;;;24.30;1.00;;;;;;2272163;61;995;-87
2022/07/10 14:55:27;31932.00;0.11;55.93;0.00;0.00;0.62;;;;;24.20;1.00;;;;;;2272296;61;1014;-86
2022/07/10 14:57:54;252091.00;0.84;435.55;0.00;0.00;0.62;;;;;24.50;1.00;;;;;;2272746;61;2009;-87
2022/07/10 15:00:21;262600.00;0.88;453.62;0.00;0.00;0.62;;;;;24.40;1.00;;;;;;2272797;61;1372;-87
2022/07/10 15:02:50;293739.00;0.98;507.16;0.00;0.00;0.62;;;;;24.40;1.00;;;;;;2272839;61;1018;-86
2022/07/10 15:05:17;179561.00;0.60;310.73;0.00;0.00;0.62;;;;;24.30;1.00;;;;;;2272813;61;1068;-88
2022/07/10 15:07:44;403945.00;1.35;696.59;0.00;0.00;0.62;;;;;23.60;1.00;;;;;;2272716;61;1492;-87
2022/07/10 15:10:12;242849.00;0.81;419.65;0.00;0.00;0.62;;;;;23.40;1.00;;;;;;2272742;61;1261;-86
2022/07/10 15:12:41;254682.00;0.85;440.00;0.00;0.00;0.62;;;;;23.20;1.00;;;;;;2272581;61;1285;-86
2022/07/10 15:15:09;135582.00;0.45;234.95;0.00;0.00;0.62;;;;;22.80;1.00;;;;;;2272686;61;1366;-86
2022/07/10 15:17:39;345774.00;1.15;596.60;0.00;0.00;0.62;;;;;22.70;1.00;;;;;;2272641;61;1984;-87
2022/07/10 15:20:09;302526.00;1.01;522.26;24829.00;0.08;43.63;;;;;23.00;1.00;;;;;;2272726;61;1289;-87
2022/07/10 15:22:36;117394.00;0.39;203.59;0.00;0.00;0.62;;;;;23.00;1.00;;;;;;2272686;61;1722;-87
2022/07/10 15:25:03;75014.00;0.25;130.42;0.00;0.00;0.62;;;;;23.30;1.00;;;;;;2272721;61;1118;-87
2022/07/10 15:27:30;60584.00;0.20;105.49;0.00;0.00;0.62;;;;;24.00;1.00;;;;;;2272740;61;2197;-87
2022/07/10 15:29:57;344803.00;1.15;594.93;49221.00;0.16;85.84;;;;;24.30;1.00;;;;;;2272685;61;1349;-86
2022/07/10 15:32:24;174509.00;0.58;302.03;0.00;0.00;0.62;;;;;24.00;1.00;;;;;;2272657;61;1039;-87
2022/07/10 15:34:52;367194.00;1.22;633.41;14787.00;0.05;26.24;;;;;23.80;1.00;;;;;;2272599;61;1078;-87
2022/07/10 15:37:22;172453.00;0.57;298.49;0.00;0.00;0.62;;;;;23.60;1.00;;;;;;2272520;61;1998;-88
2022/07/10 15:39:49;123657.00;0.41;214.39;0.00;0.00;0.62;;;;;23.40;1.00;;;;;;2272658;61;1473;-86
2022/07/10 15:42:16;158681.00;0.53;274.77;0.00;0.00;0.62;;;;;23.30;1.00;;;;;;2272742;61;1039;-86
2022/07/10 15:44:43;209283.00;0.70;361.90;0.00;0.00;0.62;;;;;23.50;1.00;;;;;;2272706;61;1003;-87
2022/07/10 15:47:11;164152.00;0.55;284.19;0.00;0.00;0.62;;;;;23.70;1.00;;;;;;2272642;61;1557;-89
2022/07/10 15:49:38;237259.00;0.79;410.04;0.00;0.00;0.62;;;;;23.80;1.00;;;;;;2272498;61;1380;-85
2022/07/10 15:52:06;43350.00;0.14;75.68;0.00;0.00;0.62;;;;;24.00;1.00;;;;;;2272669;61;966;-87
2022/07/10 15:54:34;78928.00;0.26;137.19;0.00;0.00;0.62;;;;;24.00;1.00;;;;;;2272547;61;1602;-88
2022/07/10 15:57:02;166740.00;0.56;288.65;0.00;0.00;0.62;;;;;23.80;1.00;;;;;;2272565;61;2010;-84
2022/07/10 15:59:31;26687.00;0.09;46.85;0.00;0.00;0.62;;;;;23.70;1.00;;;;;;2272677;61;959;-87
2022/07/10 16:01:59;138531.00;0.46;240.04;0.00;0.00;0.62;;;;;23.70;1.00;;;;;;2272637;61;1497;-86
2022/07/10 16:04:26;961.00;0.00;2.29;0.00;0.00;0.62;;;;;23.60;1.00;;;;;;2272740;61;1026;-87
2022/07/10 16:06:54;276844.00;0.92;478.11;0.00;0.00;0.62;;;;;23.50;1.00;;;;;;2272674;61;1440;-86
2022/07/10 16:09:22;180331.00;0.60;312.06;0.00;0.00;0.62;;;;;23.40;1.00;;;;;;2272654;61;1072;-87
2022/07/10 16:11:50;444274.00;1.48;765.93;25498.00;0.08;44.79;;;;;23.30;1.00;;;;;;2275251;55;3764;-87
2022/07/10 16:14:18;164708.00;0.55;285.15;0.00;0.00;0.62;;;;;23.10;1.00;;;;;;2276618;60;963;-87
2022/07/10 16:16:45;33416.00;0.11;58.50;0.00;0.00;0.62;;;;;23.10;1.00;;;;;;2276539;60;1923;-86
2022/07/10 16:19:12;115952.00;0.39;201.10;0.00;0.00;0.62;;;;;23.00;1.00;;;;;;2276708;60;1121;-86
2022/07/10 16:21:39;594955.00;1.98;1025.51;0.00;0.00;0.62;;;;;23.00;1.00;;;;;;2276766;60;1298;-87
2022/07/10 16:24:06;301570.00;1.01;520.62;0.00;0.00;0.62;;;;;23.30;1.00;;;;;;2276723;60;1150;-87
2022/07/10 16:26:35;43251.00;0.14;75.51;0.00;0.00;0.62;;;;;23.70;1.00;;;;;;2276682;60;1035;-87
2022/07/10 16:29:04;285814.00;0.95;493.53;0.00;0.00;0.62;;;;;23.80;1.00;;;;;;2276694;60;1234;-86
2022/07/10 16:31:32;195897.00;0.65;338.86;21549.00;0.07;37.95;;;;;23.50;1.00;;;;;;2276713;60;1426;-88
2022/07/10 16:33:59;390737.00;1.30;673.88;8925.00;0.03;16.09;;;;;23.40;1.00;;;;;;2276818;60;1655;-86
2022/07/10 16:36:27;326249.00;1.09;563.04;32020.00;0.11;56.08;;;;;23.90;1.00;;;;;;2276527;60;1051;-87
2022/07/10 16:38:54;321787.00;1.07;555.37;26543.00;0.09;46.60;;;;;24.00;1.00;;;;;;2276481;60;2029;-87
2022/07/10 16:41:21;237978.00;0.79;411.27;0.00;0.00;0.62;;;;;23.60;1.00;;;;;;2276544;60;1655;-86
2022/07/10 16:43:48;204957.00;0.68;354.46;0.00;0.00;0.62;;;;;23.70;1.00;;;;;;2276613;60;1078;-87
2022/07/10 16:46:16;286862.00;0.96;495.33;0.00;0.00;0.62;;;;;23.80;1.00;;;;;;2276566;60;1106;-88
2022/07/10 16:48:44;267268.00;0.89;461.65;0.00;0.00;0.62;;;;;24.10;1.00;;;;;;2276621;60;928;-86
2022/07/10 16:51:11;377044.00;1.26;650.34;66178.00;0.22;115.16;;;;;24.30;1.00;;;;;;2276565;60;1643;-87
2022/07/10 16:53:39;96319.00;0.32;167.22;0.00;0.00;0.62;;;;;24.50;1.00;;;;;;2276586;60;1071;-89
2022/07/10 16:56:07;119743.00;0.40;207.64;0.00;0.00;0.62;;;;;24.30;1.00;;;;;;2276598;60;1221;-90
2022/07/10 16:58:34;279167.00;0.93;482.11;0.00;0.00;0.62;;;;;24.00;1.00;;;;;;2276475;60;1951;-87
2022/07/10 17:01:02;240451.00;0.80;415.53;0.00;0.00;0.62;;;;;23.50;1.00;;;;;;2276480;60;1385;-86
2022/07/10 17:03:30;265030.00;0.88;457.80;50261.00;0.17;87.64;;;;;23.20;1.00;;;;;;2276546;60;1048;-86
2022/07/10 17:05:57;21454.00;0.07;37.79;0.00;0.00;0.62;;;;;23.30;1.00;;;;;;2276553;60;1262;-87
2022/07/10 17:08:24;76971.00;0.26;133.80;0.00;0.00;0.62;;;;;23.70;1.00;;;;;;2276576;60;1080;-87
2022/07/10 17:10:51;0.00;0.00;0.62;0.00;0.00;0.62;;;;;23.50;1.00;;;;;;2276489;60;1409;-86
2022/07/10 17:13:19;198251.00;0.66;342.91;0.00;0.00;0.62;;;;;23.60;1.00;;;;;;2276386;60;1594;-85
2022/07/10 17:15:46;149320.00;0.50;258.64;7894.00;0.03;14.30;;;;;23.40;1.00;;;;;;2276651;60;1590;-87
2022/07/10 17:18:13;277962.00;0.93;480.03;0.00;0.00;0.62;;;;;23.70;1.00;;;;;;2276566;60;2008;-87
2022/07/10 17:20:42;161616.00;0.54;279.82;0.00;0.00;0.62;;;;;23.90;1.00;;;;;;2276575;60;1373;-86
2022/07/10 17:23:10;151344.00;0.50;262.12;0.00;0.00;0.62;;;;;24.10;1.00;;;;;;2276429;60;1473;-85